Terminal Aerodrome Forecast
Issued by NWS Louisville, KY

Home | Current Version | Previous Version | Text Only | Print | Product List | Glossary On
Versions: 1 2 3 4 5 6 7 8 9 10 11 12 13 14 15 16 17
159
FTUS43 KLMK 281129
TAFBWG
TAF
KBWG 281129Z 2812/2912 20004KT P6SM FEW250
     FM281400 21010G18KT P6SM SCT040 BKN250
     FM282000 29008KT P6SM VCSH BKN040 OVC100
     FM290000 31008KT P6SM OVC060=

USA.gov is the U.S. government's official web portal to all federal, state and local government web resources and services.